createdAt,value
2019-03-19T00:03:00.147Z,101207.22
2019-03-19T00:08:02.469Z,101220.02
2019-03-19T00:13:04.638Z,101220.94
2019-03-19T00:18:06.729Z,101219.69
2019-03-19T00:23:08.956Z,101225.82
2019-03-19T00:28:11.049Z,101227.79
2019-03-19T00:33:13.119Z,101229.02
2019-03-19T00:38:15.147Z,101230.91
2019-03-19T00:43:17.249Z,101239.59
2019-03-19T00:48:19.264Z,101232.30
2019-03-19T00:53:21.598Z,101231.05
2019-03-19T00:58:23.706Z,101233.81
2019-03-19T01:03:25.788Z,101236.12
2019-03-19T01:08:27.832Z,101239.63
2019-03-19T01:13:29.985Z,101237.58
2019-03-19T01:18:32.035Z,101253.47
2019-03-19T01:23:34.147Z,101255.74
2019-03-19T01:28:36.231Z,101247.44
2019-03-19T01:33:38.332Z,101261.09
2019-03-19T01:38:40.475Z,101266.29
2019-03-19T01:43:42.543Z,101269.45
2019-03-19T01:48:44.595Z,101259.88
2019-03-19T01:53:46.730Z,101266.49
2019-03-19T01:58:48.764Z,101265.20
2019-03-19T02:03:50.830Z,101264.88
2019-03-19T02:08:53.009Z,101268.71
2019-03-19T02:13:55.073Z,101269.14
2019-03-19T02:18:57.280Z,101265.35
2019-03-19T02:23:59.328Z,101277.97
2019-03-19T02:29:01.432Z,101269.27
2019-03-19T02:34:03.488Z,101268.84
2019-03-19T02:39:07.687Z,101284.54
2019-03-19T02:44:09.742Z,101287.22
2019-03-19T02:49:11.964Z,101290.78
2019-03-19T02:54:14.053Z,101309.56
2019-03-19T02:59:16.089Z,101305.61
2019-03-19T03:04:18.202Z,101311.40
2019-03-19T03:09:20.540Z,101299.59
2019-03-19T03:14:22.975Z,101307.50
2019-03-19T03:19:25.133Z,101301.92
2019-03-19T03:24:27.240Z,101316.27
2019-03-19T03:29:30.466Z,101327.28
2019-03-19T03:34:32.603Z,101331.17
2019-03-19T03:39:34.643Z,101323.41
2019-03-19T03:44:36.926Z,101330.92
2019-03-19T03:49:39.016Z,101337.45
2019-03-19T03:54:41.099Z,101347.12
2019-03-19T03:59:43.169Z,101351.97
2019-03-19T04:04:45.293Z,101365.54
2019-03-19T04:09:47.342Z,101366.45
2019-03-19T04:14:49.741Z,101384.44
2019-03-19T04:19:51.839Z,101387.09
2019-03-19T04:24:53.903Z,101395.41
2019-03-19T04:29:56.008Z,101401.12
2019-03-19T04:34:58.033Z,101401.55
2019-03-19T04:40:00.409Z,101400.26
2019-03-19T04:45:03.362Z,101404.63
2019-03-19T04:50:06.720Z,101415.59
2019-03-19T04:55:09.523Z,101419.53
2019-03-19T05:00:11.824Z,101424.31
2019-03-19T05:05:13.936Z,101425.66
2019-03-19T05:10:16.059Z,101438.34
2019-03-19T05:15:18.334Z,101434.84
2019-03-19T05:20:20.463Z,101455.41
2019-03-19T05:25:22.549Z,101451.45
2019-03-19T05:30:25.062Z,101458.91
2019-03-19T05:35:27.677Z,101460.22
2019-03-19T05:40:29.709Z,101464.14
2019-03-19T05:45:31.895Z,101472.45
2019-03-19T05:50:34.151Z,101485.59
2019-03-19T05:55:36.571Z,101490.84
2019-03-19T06:00:38.651Z,101488.23
2019-03-19T06:05:40.788Z,101496.09
2019-03-19T06:10:43.054Z,101485.59
2019-03-19T06:15:45.206Z,101491.28
2019-03-19T06:20:47.311Z,101495.66
2019-03-19T06:25:50.043Z,101500.91
2019-03-19T06:30:52.159Z,101507.03
2019-03-19T06:35:54.366Z,101525.41
2019-03-19T06:40:56.418Z,101523.23
2019-03-19T06:46:00.174Z,101525.84
2019-03-19T06:51:02.759Z,101531.97
2019-03-19T06:56:04.782Z,101541.11
2019-03-19T07:01:07.234Z,101546.39
2019-03-19T07:06:09.291Z,101556.46
2019-03-19T07:11:11.852Z,101553.33
2019-03-19T07:16:15.503Z,101555.53
2019-03-19T07:21:17.523Z,101560.69
2019-03-19T07:26:19.866Z,101556.68
2019-03-19T07:31:30.493Z,101565.37
2019-03-19T07:36:26.421Z,101566.56
2019-03-19T07:41:28.714Z,101586.25
2019-03-19T07:46:31.424Z,101560.72
2019-03-19T07:51:33.464Z,101571.97
2019-03-19T07:56:35.771Z,101564.88
2019-03-19T08:01:38.476Z,101563.03
2019-03-19T08:06:40.666Z,101575.32
2019-03-19T08:11:42.854Z,101579.47
2019-03-19T08:16:45.084Z,101574.81
2019-03-19T08:21:47.157Z,101595.39
2019-03-19T08:26:49.685Z,101607.16
2019-03-19T08:31:52.620Z,101606.94
2019-03-19T08:36:54.798Z,101615.97
2019-03-19T08:41:57.230Z,101622.02
2019-03-19T08:47:00.581Z,101647.81
2019-03-19T08:52:02.679Z,101625.15
2019-03-19T08:57:04.716Z,101629.98
2019-03-19T09:02:07.085Z,101642.95
2019-03-19T09:07:09.117Z,101641.86
2019-03-19T09:12:11.206Z,101637.70
2019-03-19T09:17:13.326Z,101643.85
2019-03-19T09:22:15.734Z,101651.96
2019-03-19T09:27:18.155Z,101652.09
2019-03-19T09:32:20.344Z,101642.68
2019-03-19T09:37:22.386Z,101650.03
2019-03-19T09:42:24.422Z,101655.25
2019-03-19T09:47:26.500Z,101647.55
2019-03-19T09:52:28.843Z,101648.89
2019-03-19T09:57:30.914Z,101636.02
2019-03-19T10:02:32.943Z,101633.95
2019-03-19T10:07:34.931Z,101635.91
2019-03-19T10:12:37.446Z,101633.10
2019-03-19T10:17:39.507Z,101638.89
2019-03-19T10:22:49.837Z,101652.42
2019-03-19T10:27:51.906Z,101649.16
2019-03-19T10:32:54.010Z,101650.37
2019-03-19T10:37:56.030Z,101657.08
2019-03-19T10:42:58.076Z,101653.72
2019-03-19T10:48:00.134Z,101659.90
2019-03-19T10:53:02.194Z,101661.69
2019-03-19T10:58:11.035Z,101654.69
2019-03-19T11:03:08.457Z,101659.78
2019-03-19T11:08:10.719Z,101650.02
2019-03-19T11:13:12.765Z,101654.02
2019-03-19T11:18:15.241Z,101654.29
2019-03-19T11:23:17.290Z,101649.61
2019-03-19T11:28:19.344Z,101657.20
2019-03-19T11:33:21.363Z,101659.38
2019-03-19T11:38:23.375Z,101651.10
2019-03-19T11:43:25.477Z,101650.70
2019-03-19T11:48:27.797Z,101653.21
2019-03-19T11:53:29.827Z,101653.02
2019-03-19T11:58:31.868Z,101650.66
2019-03-19T12:03:33.883Z,101652.81
2019-03-19T12:08:36.402Z,101647.37
2019-03-19T12:13:38.452Z,101649.23
2019-03-19T12:18:40.641Z,101648.00
2019-03-19T12:23:42.718Z,101646.91
2019-03-19T12:28:47.129Z,101648.83
2019-03-19T12:33:49.186Z,101644.63
2019-03-19T12:38:51.291Z,101647.08
2019-03-19T12:43:53.320Z,101642.92
2019-03-19T12:48:55.957Z,101645.77
2019-03-19T12:53:57.986Z,101638.33
2019-03-19T12:59:00.056Z,101630.92
2019-03-19T13:04:02.137Z,101632.22
2019-03-19T13:09:06.297Z,101624.84
2019-03-19T13:14:08.831Z,101624.17
2019-03-19T13:19:11.036Z,101626.87
2019-03-19T13:24:13.130Z,101624.86
2019-03-19T13:29:15.218Z,101607.16
2019-03-19T13:34:17.270Z,101603.52
2019-03-19T13:39:19.690Z,101617.91
2019-03-19T13:44:21.719Z,101607.28
2019-03-19T13:49:24.039Z,101612.23
2019-03-19T13:54:26.206Z,101615.72
2019-03-19T13:59:28.219Z,101607.19
2019-03-19T14:04:30.273Z,101603.58
2019-03-19T14:09:32.394Z,101612.44
2019-03-19T14:14:34.607Z,101608.61
2019-03-19T14:19:36.666Z,101608.61
2019-03-19T14:24:39.021Z,101607.52
2019-03-19T14:29:41.198Z,101610.92
2019-03-19T14:34:43.276Z,101598.43
2019-03-19T14:39:45.344Z,101603.45
2019-03-19T14:44:47.373Z,101606.02
2019-03-19T14:49:50.066Z,101606.95
2019-03-19T14:54:52.167Z,101602.44
2019-03-19T14:59:54.554Z,101603.46
2019-03-19T15:04:56.898Z,101613.04
2019-03-19T15:09:58.949Z,101599.36
2019-03-19T15:15:01.403Z,101604.40
2019-03-19T15:20:06.650Z,101604.40
2019-03-19T15:25:09.540Z,101601.55
2019-03-19T15:30:12.152Z,101601.33
2019-03-19T15:35:14.314Z,101604.20
2019-03-19T15:40:16.452Z,101605.17
2019-03-19T15:45:18.641Z,101605.17
2019-03-19T15:50:20.825Z,101603.30
2019-03-19T15:55:23.793Z,101611.39
2019-03-19T16:00:26.085Z,101607.95
2019-03-19T16:05:28.107Z,101610.53
2019-03-19T16:10:30.136Z,101629.25
2019-03-19T16:15:32.541Z,101622.28
2019-03-19T16:20:34.563Z,101632.86
2019-03-19T16:25:36.653Z,101646.38
2019-03-19T16:30:39.042Z,101644.24
2019-03-19T16:35:41.088Z,101650.70
2019-03-19T16:40:43.135Z,101657.43
2019-03-19T16:45:45.165Z,101661.40
2019-03-19T16:50:47.200Z,101673.36
2019-03-19T16:55:49.363Z,101674.56
2019-03-19T17:00:51.418Z,101668.69
2019-03-19T17:05:53.602Z,101683.89
2019-03-19T17:10:55.690Z,101695.45
2019-03-19T17:15:57.844Z,101701.02
2019-03-19T17:21:00.396Z,101704.88
2019-03-19T17:26:02.474Z,101708.69
2019-03-19T17:31:04.568Z,101714.05
2019-03-19T17:36:06.620Z,101715.69
2019-03-19T17:41:08.784Z,101721.77
2019-03-19T17:46:11.097Z,101719.02
2019-03-19T17:51:13.239Z,101729.45
2019-03-19T17:56:15.413Z,101739.34
2019-03-19T18:01:17.917Z,101749.39
2019-03-19T18:06:20.052Z,101755.06
2019-03-19T18:11:22.300Z,101760.28
2019-03-19T18:16:24.550Z,101769.73
2019-03-19T18:21:26.581Z,101777.78
2019-03-19T18:26:28.726Z,101769.92
2019-03-19T18:31:30.797Z,101774.34
2019-03-19T18:36:32.869Z,101783.55
2019-03-19T18:41:34.911Z,101791.34
2019-03-19T18:46:37.009Z,101794.52
2019-03-19T18:51:39.059Z,101800.16
2019-03-19T18:56:41.089Z,101804.50
2019-03-19T19:01:43.135Z,101804.91
2019-03-19T19:06:45.488Z,101807.50
2019-03-19T19:11:47.578Z,101814.27
2019-03-19T19:16:49.646Z,101822.75
2019-03-19T19:21:51.748Z,101820.94
2019-03-19T19:26:53.823Z,101827.48
2019-03-19T19:31:55.969Z,101829.55
2019-03-19T19:36:58.193Z,101833.09
2019-03-19T19:42:00.211Z,101841.62
2019-03-19T19:47:02.332Z,101842.60
2019-03-19T19:52:04.481Z,101846.99
2019-03-19T19:57:06.873Z,101851.13
2019-03-19T20:02:08.924Z,101858.38
2019-03-19T20:07:11.917Z,101856.96
2019-03-19T20:12:13.954Z,101857.08
2019-03-19T20:17:16.012Z,101858.50
2019-03-19T20:22:18.019Z,101873.95
2019-03-19T20:27:20.102Z,101874.48
2019-03-19T20:32:22.344Z,101882.90
2019-03-19T20:37:24.773Z,101886.25
2019-03-19T20:42:27.072Z,101892.92
2019-03-19T20:47:29.296Z,101899.70
2019-03-19T20:52:31.441Z,101904.11
2019-03-19T20:57:35.146Z,101900.88
2019-03-19T21:02:39.683Z,101904.82
2019-03-19T21:07:41.781Z,101921.13
2019-03-19T21:12:44.290Z,101923.11
2019-03-19T21:17:47.088Z,101934.66
2019-03-19T21:22:49.507Z,101938.69
2019-03-19T21:27:51.739Z,101941.84
2019-03-19T21:32:54.146Z,101947.67
2019-03-19T21:37:56.271Z,101953.02
2019-03-19T21:42:58.482Z,101946.47
2019-03-19T21:48:00.816Z,101949.57
2019-03-19T21:53:06.254Z,101953.17
2019-03-19T21:58:08.348Z,101950.56
2019-03-19T22:03:10.491Z,101958.22
2019-03-19T22:08:15.431Z,101961.30
2019-03-19T22:13:17.452Z,101969.28
2019-03-19T22:18:19.560Z,101969.30
2019-03-19T22:23:21.667Z,101975.05
2019-03-19T22:28:23.774Z,101974.69
2019-03-19T22:33:26.118Z,101983.94
2019-03-19T22:38:28.187Z,101988.87
2019-03-19T22:43:32.122Z,101985.73
2019-03-19T22:48:34.157Z,101997.72
2019-03-19T22:53:36.318Z,101999.04
2019-03-19T22:58:38.411Z,102006.10
2019-03-19T23:03:40.811Z,102008.76
2019-03-19T23:08:44.768Z,102012.30
2019-03-19T23:13:47.061Z,102020.27
2019-03-19T23:18:49.228Z,102018.47
2019-03-19T23:23:51.934Z,102019.41
2019-03-19T23:28:54.196Z,102032.66
2019-03-19T23:33:56.277Z,102027.83
2019-03-19T23:38:58.539Z,102037.94
2019-03-19T23:44:00.855Z,102034.88
2019-03-19T23:49:02.928Z,102039.72
2019-03-19T23:54:05.004Z,102043.23
2019-03-19T23:59:07.072Z,102048.94
